createdAt,value
2023-01-22T00:00:20.825Z,9.98
2023-01-22T00:02:52.549Z,8.43
2023-01-22T00:05:24.273Z,7.38
2023-01-22T00:07:56.150Z,7.07
2023-01-22T00:10:27.793Z,8.45
2023-01-22T00:12:59.776Z,10.10
2023-01-22T00:15:31.498Z,10.43
2023-01-22T00:18:03.243Z,8.88
2023-01-22T00:20:34.948Z,8.65
2023-01-22T00:23:06.961Z,8.00
2023-01-22T00:25:38.581Z,8.13
2023-01-22T00:28:14.228Z,9.23
2023-01-22T00:30:45.920Z,8.15
2023-01-22T00:33:21.592Z,8.48
2023-01-22T00:35:53.422Z,8.98
2023-01-22T00:38:26.578Z,7.65
2023-01-22T00:41:02.305Z,7.07
2023-01-22T00:43:38.554Z,8.88
2023-01-22T00:46:12.711Z,10.18
2023-01-22T00:48:49.684Z,8.48
2023-01-22T00:51:21.385Z,7.90
2023-01-22T00:53:53.109Z,8.10
2023-01-22T00:56:24.822Z,7.47
2023-01-22T00:58:58.563Z,8.63
2023-01-22T01:01:30.410Z,10.17
2023-01-22T01:04:02.939Z,7.45
2023-01-22T01:06:34.660Z,8.93
2023-01-22T01:09:06.498Z,8.93
2023-01-22T01:11:40.787Z,7.47
2023-01-22T01:14:13.588Z,10.00
2023-01-22T01:16:46.171Z,8.75
2023-01-22T01:19:20.193Z,8.27
2023-01-22T01:21:55.503Z,9.88
2023-01-22T01:24:28.321Z,9.77
2023-01-22T01:27:00.099Z,10.48
2023-01-22T01:29:46.800Z,9.50
2023-01-22T01:32:18.562Z,10.52
2023-01-22T01:34:52.833Z,9.10
2023-01-22T01:37:27.503Z,8.02
2023-01-22T01:40:00.118Z,9.50
2023-01-22T01:42:34.995Z,9.05
2023-01-22T01:47:54.828Z,8.20
2023-01-22T01:50:28.057Z,9.15
2023-01-22T01:53:01.290Z,9.55
2023-01-22T01:55:35.481Z,10.07
2023-01-22T01:58:11.261Z,10.32
2023-01-22T02:00:44.647Z,9.68
2023-01-22T02:03:16.907Z,9.85
2023-01-22T02:05:48.579Z,9.90
2023-01-22T02:08:25.295Z,9.13
2023-01-22T02:10:57.225Z,8.88
2023-01-22T02:13:32.459Z,10.02
2023-01-22T02:16:05.997Z,9.77
2023-01-22T02:18:38.510Z,11.05
2023-01-22T02:21:39.165Z,9.85
2023-01-22T02:24:16.884Z,9.57
2023-01-22T02:29:27.969Z,9.73
2023-01-22T02:31:59.658Z,10.20
2023-01-22T02:34:32.055Z,9.68
2023-01-22T02:37:05.343Z,10.90
2023-01-22T02:39:37.339Z,11.13
2023-01-22T02:42:10.587Z,10.48
2023-01-22T02:44:43.399Z,10.57
2023-01-22T02:47:15.077Z,12.55
2023-01-22T02:49:46.810Z,11.13
2023-01-22T02:52:27.296Z,11.27
2023-01-22T02:54:59.120Z,10.95
2023-01-22T02:57:31.447Z,10.98
2023-01-22T03:00:04.420Z,10.30
2023-01-22T03:02:36.649Z,11.68
2023-01-22T03:05:08.470Z,9.82
2023-01-22T03:07:47.537Z,10.85
2023-01-22T03:10:21.387Z,10.45
2023-01-22T03:13:11.857Z,13.05
2023-01-22T03:16:04.502Z,12.10
2023-01-22T03:18:59.606Z,14.48
2023-01-22T03:21:31.355Z,10.57
2023-01-22T03:24:03.065Z,11.70
2023-01-22T03:26:38.501Z,11.05
2023-01-22T03:29:10.325Z,12.20
2023-01-22T03:31:48.207Z,12.15
2023-01-22T03:34:21.608Z,13.02
2023-01-22T03:36:53.396Z,13.65
2023-01-22T03:39:28.907Z,12.52
2023-01-22T03:42:00.823Z,11.45
2023-01-22T03:44:32.806Z,12.60
2023-01-22T03:47:04.553Z,11.50
2023-01-22T03:49:39.328Z,13.40
2023-01-22T03:52:11.224Z,10.18
2023-01-22T03:54:44.809Z,13.15
2023-01-22T03:57:17.048Z,11.90
2023-01-22T03:59:48.833Z,12.15
2023-01-22T04:02:21.775Z,11.98
2023-01-22T04:05:09.329Z,13.10
2023-01-22T04:07:42.834Z,12.57
2023-01-22T04:10:16.785Z,11.27
2023-01-22T04:12:49.630Z,12.50
2023-01-22T04:15:24.975Z,13.30
2023-01-22T04:17:58.879Z,13.20
2023-01-22T04:20:49.451Z,13.43
2023-01-22T04:23:35.807Z,11.70
2023-01-22T04:26:07.751Z,13.60
2023-01-22T04:28:39.543Z,12.90
2023-01-22T04:31:11.557Z,11.85
2023-01-22T04:33:56.375Z,10.50
2023-01-22T04:36:32.970Z,13.82
2023-01-22T04:39:05.109Z,13.25
2023-01-22T04:41:37.706Z,13.25
2023-01-22T04:44:09.466Z,14.30
2023-01-22T04:46:41.226Z,12.32
2023-01-22T04:49:12.897Z,13.25
2023-01-22T04:51:45.597Z,11.02
2023-01-22T04:54:17.640Z,12.38
2023-01-22T04:56:53.213Z,12.90
2023-01-22T05:01:56.920Z,14.07
2023-01-22T05:04:28.870Z,13.30
2023-01-22T05:07:01.186Z,14.30
2023-01-22T05:09:33.035Z,13.82
2023-01-22T05:12:06.312Z,14.57
2023-01-22T05:14:44.488Z,14.35
2023-01-22T05:17:16.439Z,15.77
2023-01-22T05:19:48.862Z,14.80
2023-01-22T05:22:25.661Z,12.20
2023-01-22T05:25:00.604Z,15.38
2023-01-22T05:27:35.488Z,13.57
2023-01-22T05:30:13.589Z,12.32
2023-01-22T05:33:05.636Z,14.90
2023-01-22T05:35:37.271Z,12.38
2023-01-22T05:38:10.002Z,12.65
2023-01-22T05:40:43.084Z,14.98
2023-01-22T05:43:14.902Z,14.02
2023-01-22T05:45:50.948Z,14.20
2023-01-22T05:48:47.268Z,15.07
2023-01-22T05:51:34.722Z,12.15
2023-01-22T05:54:06.716Z,14.65
2023-01-22T05:56:41.459Z,14.63
2023-01-22T05:59:13.441Z,17.88
2023-01-22T06:01:46.937Z,17.98
2023-01-22T06:04:20.150Z,17.10
2023-01-22T06:06:51.878Z,16.08
2023-01-22T06:09:25.847Z,16.38
2023-01-22T06:12:00.756Z,14.50
2023-01-22T06:14:32.495Z,15.07
2023-01-22T06:17:05.534Z,16.80
2023-01-22T06:19:46.641Z,13.93
2023-01-22T06:22:22.013Z,13.65
2023-01-22T06:25:03.341Z,14.85
2023-01-22T06:27:53.112Z,15.15
2023-01-22T06:30:24.830Z,16.30
2023-01-22T06:32:58.076Z,15.88
2023-01-22T06:35:29.853Z,15.70
2023-01-22T06:38:01.827Z,16.42
2023-01-22T06:40:37.091Z,14.88
2023-01-22T06:43:10.928Z,17.23
2023-01-22T06:45:43.572Z,15.57
2023-01-22T06:48:16.512Z,14.23
2023-01-22T06:50:51.493Z,15.82
2023-01-22T06:53:23.162Z,16.98
2023-01-22T06:55:55.284Z,14.35
2023-01-22T06:58:27.880Z,14.50
2023-01-22T07:01:04.924Z,12.40
2023-01-22T07:03:36.672Z,13.85
2023-01-22T07:06:09.887Z,14.43
2023-01-22T07:08:41.528Z,15.45
2023-01-22T07:11:14.551Z,14.80
2023-01-22T07:13:46.277Z,15.57
2023-01-22T07:16:18.820Z,13.88
2023-01-22T07:18:50.526Z,14.55
2023-01-22T07:21:29.146Z,16.67
2023-01-22T07:24:03.849Z,17.27
2023-01-22T07:26:36.323Z,18.50
2023-01-22T07:29:11.051Z,18.33
2023-01-22T07:31:48.687Z,17.83
2023-01-22T07:34:21.362Z,18.08
2023-01-22T07:36:53.226Z,15.23
2023-01-22T07:39:24.928Z,17.10
2023-01-22T07:42:01.190Z,16.55
2023-01-22T07:44:37.014Z,17.65
2023-01-22T07:47:09.154Z,16.15
2023-01-22T07:49:40.850Z,16.98
2023-01-22T07:52:13.370Z,15.77
2023-01-22T07:54:45.082Z,18.60
2023-01-22T07:57:19.654Z,18.63
2023-01-22T07:59:51.308Z,16.58
2023-01-22T08:02:23.030Z,17.15
2023-01-22T08:04:54.698Z,17.35
2023-01-22T08:07:27.778Z,15.68
2023-01-22T08:09:59.704Z,19.15
2023-01-22T08:12:31.454Z,17.75
2023-01-22T08:15:03.458Z,16.83
2023-01-22T08:17:36.142Z,16.90
2023-01-22T08:20:09.487Z,19.85
2023-01-22T08:22:41.345Z,19.35
2023-01-22T08:25:13.687Z,18.15
2023-01-22T08:27:45.366Z,18.35
2023-01-22T08:30:18.389Z,17.92
2023-01-22T08:32:51.457Z,17.48
2023-01-22T08:35:24.482Z,20.25
2023-01-22T08:38:00.093Z,20.50
2023-01-22T08:40:31.832Z,20.05
2023-01-22T08:43:03.524Z,20.42
2023-01-22T08:45:35.209Z,23.48
2023-01-22T08:48:07.111Z,23.08
2023-01-22T08:50:38.771Z,23.05
2023-01-22T08:53:13.658Z,24.60
2023-01-22T08:58:26.399Z,25.23
2023-01-22T09:00:58.323Z,22.38
2023-01-22T09:03:30.042Z,25.10
2023-01-22T09:06:01.730Z,25.58
2023-01-22T09:08:33.370Z,23.48
2023-01-22T09:11:05.961Z,24.60
2023-01-22T09:13:39.737Z,23.73
2023-01-22T09:16:12.360Z,23.33
2023-01-22T09:18:45.355Z,22.90
2023-01-22T09:21:17.124Z,25.00
2023-01-22T09:23:48.908Z,26.92
2023-01-22T09:26:21.259Z,23.15
2023-01-22T09:28:53.884Z,26.55
2023-01-22T09:31:26.056Z,25.73
2023-01-22T09:33:57.838Z,24.88
2023-01-22T09:36:30.400Z,26.15
2023-01-22T09:39:02.918Z,24.95
2023-01-22T09:41:38.616Z,20.95
2023-01-22T09:44:23.635Z,25.23
2023-01-22T09:50:00.780Z,23.85
2023-01-22T09:52:36.811Z,21.00
2023-01-22T09:55:13.300Z,21.40
2023-01-22T09:57:47.624Z,21.25
2023-01-22T10:00:30.059Z,23.10
2023-01-22T10:03:07.465Z,22.75
2023-01-22T10:05:43.249Z,21.77
2023-01-22T10:08:45.103Z,23.33
2023-01-22T10:11:17.499Z,21.30
2023-01-22T10:13:55.260Z,22.20
2023-01-22T10:16:27.109Z,25.60
2023-01-22T10:19:00.603Z,21.73
2023-01-22T10:21:37.523Z,21.77
2023-01-22T10:24:12.395Z,21.45
2023-01-22T10:29:27.459Z,19.92
2023-01-22T10:32:03.255Z,22.08
2023-01-22T10:34:36.588Z,22.95
2023-01-22T10:37:15.495Z,20.88
2023-01-22T10:39:48.339Z,18.92
2023-01-22T10:42:25.960Z,19.80
2023-01-22T10:45:11.475Z,22.70
2023-01-22T10:47:43.177Z,22.25
2023-01-22T10:50:16.613Z,18.90
2023-01-22T10:52:54.891Z,19.10
2023-01-22T10:55:31.071Z,20.98
2023-01-22T10:58:07.798Z,19.25
2023-01-22T11:00:51.510Z,20.05
2023-01-22T11:03:39.289Z,22.75
2023-01-22T11:06:17.150Z,22.20
2023-01-22T11:08:56.886Z,21.27
2023-01-22T11:11:35.934Z,20.67
2023-01-22T11:14:15.640Z,20.95
2023-01-22T11:16:51.152Z,21.27
2023-01-22T11:19:36.918Z,21.13
2023-01-22T11:22:22.351Z,19.17
2023-01-22T11:24:54.202Z,20.15
2023-01-22T11:27:44.022Z,20.33
2023-01-22T11:30:43.005Z,19.20
2023-01-22T11:33:33.179Z,18.08
2023-01-22T11:36:19.603Z,21.92
2023-01-22T11:39:00.961Z,18.67
2023-01-22T11:42:10.192Z,20.33
2023-01-22T11:45:20.072Z,17.58
2023-01-22T11:47:54.353Z,21.00
2023-01-22T11:50:28.200Z,18.60
2023-01-22T11:53:47.538Z,23.43
2023-01-22T11:56:49.886Z,22.30
2023-01-22T12:00:06.338Z,21.05
2023-01-22T12:02:46.760Z,21.60
2023-01-22T12:05:36.855Z,21.17
2023-01-22T12:08:32.442Z,17.17
2023-01-22T12:14:10.648Z,19.27
2023-01-22T12:16:57.194Z,20.08
2023-01-22T12:19:58.904Z,20.85
2023-01-22T12:22:50.373Z,24.73
2023-01-22T12:25:45.124Z,21.77
2023-01-22T12:28:21.461Z,21.65
2023-01-22T12:31:27.022Z,24.83
2023-01-22T12:34:04.065Z,22.38
2023-01-22T12:36:36.748Z,24.25
2023-01-22T12:39:15.383Z,22.52
2023-01-22T12:42:05.748Z,21.27
2023-01-22T12:44:50.784Z,22.45
2023-01-22T12:47:46.759Z,24.83
2023-01-22T12:50:21.909Z,24.42
2023-01-22T12:53:05.407Z,25.02
2023-01-22T12:55:44.355Z,28.02
2023-01-22T12:58:25.850Z,22.60
2023-01-22T13:01:09.444Z,23.10
2023-01-22T13:03:42.135Z,20.55
2023-01-22T13:06:40.918Z,24.50
2023-01-22T13:09:25.083Z,24.02
2023-01-22T13:12:08.376Z,22.55
2023-01-22T13:14:42.881Z,22.50
2023-01-22T13:17:21.446Z,23.02
2023-01-22T13:19:54.218Z,22.75
2023-01-22T13:22:28.292Z,23.98
2023-01-22T13:24:59.963Z,23.27
2023-01-22T13:27:36.357Z,22.83
2023-01-22T13:30:16.270Z,22.58
2023-01-22T13:32:48.200Z,22.92
2023-01-22T13:35:20.648Z,21.65
2023-01-22T13:37:52.580Z,24.40
2023-01-22T13:40:27.261Z,25.88
2023-01-22T13:43:00.314Z,25.33
2023-01-22T13:45:33.437Z,25.60
2023-01-22T13:48:15.737Z,24.15
2023-01-22T13:51:00.867Z,21.70
2023-01-22T13:53:40.810Z,23.75
2023-01-22T13:56:18.401Z,26.15
2023-01-22T13:58:50.585Z,28.10
2023-01-22T14:01:31.449Z,23.13
2023-01-22T14:04:23.109Z,27.17
2023-01-22T14:06:55.058Z,23.13
2023-01-22T14:09:32.962Z,25.98
2023-01-22T14:12:17.160Z,24.38
2023-01-22T14:14:49.464Z,28.20
2023-01-22T14:17:32.262Z,28.63
2023-01-22T14:20:05.648Z,28.05
2023-01-22T14:22:37.334Z,29.10
2023-01-22T14:25:12.818Z,27.10
2023-01-22T14:27:47.319Z,26.67
2023-01-22T14:30:21.751Z,30.92
2023-01-22T14:32:53.671Z,27.95
2023-01-22T14:35:27.145Z,24.88
2023-01-22T14:37:58.854Z,25.55
2023-01-22T14:40:31.070Z,25.63
2023-01-22T14:43:03.580Z,24.90
2023-01-22T14:45:35.945Z,24.63
2023-01-22T14:48:07.769Z,25.17
2023-01-22T14:50:40.675Z,26.45
2023-01-22T14:53:13.618Z,25.92
2023-01-22T14:55:48.350Z,27.58
2023-01-22T14:58:20.061Z,27.23
2023-01-22T15:00:51.777Z,22.45
2023-01-22T15:03:24.091Z,26.98
2023-01-22T15:05:55.817Z,25.52
2023-01-22T15:08:27.438Z,22.17
2023-01-22T15:11:00.692Z,23.20
2023-01-22T15:13:35.482Z,26.23
2023-01-22T15:18:40.983Z,24.20
2023-01-22T15:21:12.669Z,23.50
2023-01-22T15:23:44.275Z,22.30
2023-01-22T15:26:35.515Z,24.50
2023-01-22T15:29:10.600Z,24.17
2023-01-22T15:31:43.044Z,27.90
2023-01-22T15:34:15.686Z,23.45
2023-01-22T15:36:47.476Z,21.45
2023-01-22T15:39:19.274Z,25.75
2023-01-22T15:41:50.936Z,22.17
2023-01-22T15:44:22.666Z,22.98
2023-01-22T15:46:56.129Z,24.92
2023-01-22T15:49:27.909Z,24.45
2023-01-22T15:51:59.692Z,22.45
2023-01-22T15:54:31.372Z,24.95
2023-01-22T15:57:03.179Z,24.77
2023-01-22T15:59:37.905Z,24.15
2023-01-22T16:02:10.962Z,22.25
2023-01-22T16:04:42.695Z,25.58
2023-01-22T16:07:14.498Z,23.50
2023-01-22T16:09:46.245Z,25.55
2023-01-22T16:12:18.570Z,26.30
2023-01-22T16:14:50.300Z,24.45
2023-01-22T16:17:22.689Z,23.23
2023-01-22T16:19:54.373Z,23.88
2023-01-22T16:22:26.062Z,25.45
2023-01-22T16:24:57.734Z,24.65
2023-01-22T16:27:29.519Z,23.88
2023-01-22T16:30:01.263Z,24.73
2023-01-22T16:32:34.475Z,23.52
2023-01-22T16:35:06.588Z,24.42
2023-01-22T16:37:38.606Z,22.98
2023-01-22T16:40:12.007Z,24.33
2023-01-22T16:42:59.469Z,23.48
2023-01-22T16:45:34.883Z,23.45
2023-01-22T16:48:07.455Z,24.88
2023-01-22T16:50:39.172Z,27.55
2023-01-22T16:53:10.934Z,29.67
2023-01-22T16:55:42.614Z,28.15
2023-01-22T16:58:14.285Z,25.20
2023-01-22T17:00:47.408Z,27.48
2023-01-22T17:03:19.149Z,28.23
2023-01-22T17:05:54.860Z,27.75
2023-01-22T17:08:27.164Z,28.23
2023-01-22T17:10:58.877Z,26.77
2023-01-22T17:13:31.966Z,29.00
2023-01-22T17:16:04.595Z,29.58
2023-01-22T17:18:37.804Z,28.67
2023-01-22T17:21:13.016Z,29.48
2023-01-22T17:23:45.926Z,29.20
2023-01-22T17:26:17.943Z,27.13
2023-01-22T17:28:50.050Z,28.02
2023-01-22T17:31:24.093Z,30.48
2023-01-22T17:33:55.982Z,27.70
2023-01-22T17:36:28.499Z,28.55
2023-01-22T17:39:01.732Z,32.00
2023-01-22T17:41:34.015Z,26.08
2023-01-22T17:44:05.781Z,25.38
2023-01-22T17:46:37.962Z,24.00
2023-01-22T17:49:12.356Z,28.80
2023-01-22T17:51:44.095Z,27.48
2023-01-22T17:54:16.262Z,23.70
2023-01-22T17:56:51.037Z,24.27
2023-01-22T17:59:23.817Z,25.08
2023-01-22T18:01:55.559Z,24.23
2023-01-22T18:04:30.020Z,26.58
2023-01-22T18:07:03.878Z,26.15
2023-01-22T18:09:36.428Z,29.83
2023-01-22T18:12:08.836Z,25.38
2023-01-22T18:14:40.525Z,27.45
2023-01-22T18:17:12.230Z,25.05
2023-01-22T18:19:43.941Z,25.60
2023-01-22T18:22:15.673Z,25.63
2023-01-22T18:24:47.413Z,27.15
2023-01-22T18:27:19.141Z,27.35
2023-01-22T18:29:50.850Z,30.38
2023-01-22T18:32:22.539Z,27.27
2023-01-22T18:34:57.031Z,26.58
2023-01-22T18:37:28.724Z,29.20
2023-01-22T18:40:00.874Z,26.80
2023-01-22T18:42:32.719Z,29.63
2023-01-22T18:45:04.964Z,32.13
2023-01-22T18:50:18.005Z,27.33
2023-01-22T18:52:49.855Z,26.95
2023-01-22T18:55:22.315Z,28.85
2023-01-22T18:57:57.007Z,27.17
2023-01-22T19:00:28.821Z,25.35
2023-01-22T19:03:01.204Z,25.17
2023-01-22T19:05:35.525Z,31.02
2023-01-22T19:08:07.212Z,29.17
2023-01-22T19:10:38.912Z,27.67
2023-01-22T19:13:12.117Z,29.58
2023-01-22T19:15:45.209Z,29.30
2023-01-22T19:18:16.886Z,28.55
2023-01-22T19:20:48.700Z,30.25
2023-01-22T19:23:21.138Z,33.75
2023-01-22T19:25:57.064Z,34.80
2023-01-22T19:28:28.725Z,28.48
2023-01-22T19:31:00.537Z,27.63
2023-01-22T19:33:34.647Z,24.92
2023-01-22T19:36:06.862Z,25.65
2023-01-22T19:38:39.881Z,26.85
2023-01-22T19:41:11.832Z,25.38
2023-01-22T19:43:46.925Z,27.80
2023-01-22T19:46:18.932Z,29.75
2023-01-22T19:48:53.626Z,30.80
2023-01-22T19:51:27.674Z,28.15
2023-01-22T19:54:00.802Z,26.75
2023-01-22T19:56:35.603Z,30.02
2023-01-22T20:01:41.550Z,29.35
2023-01-22T20:04:25.318Z,23.13
2023-01-22T20:07:00.702Z,25.95
2023-01-22T20:09:34.754Z,26.88
2023-01-22T20:12:08.600Z,24.52
2023-01-22T20:14:43.283Z,28.37
2023-01-22T20:17:18.036Z,26.15
2023-01-22T20:19:49.708Z,27.88
2023-01-22T20:22:21.488Z,30.23
2023-01-22T20:24:54.122Z,33.55
2023-01-22T20:27:25.939Z,29.38
2023-01-22T20:29:57.664Z,30.77
2023-01-22T20:32:30.404Z,26.15
2023-01-22T20:35:02.109Z,26.80
2023-01-22T20:37:33.964Z,31.73
2023-01-22T20:40:06.157Z,28.88
2023-01-22T20:42:38.479Z,27.65
2023-01-22T20:45:10.643Z,30.27
2023-01-22T20:47:42.798Z,29.30
2023-01-22T20:50:14.515Z,26.30
2023-01-22T20:52:47.044Z,28.45
2023-01-22T20:55:19.824Z,31.52
2023-01-22T20:57:51.842Z,30.35
2023-01-22T21:00:24.063Z,30.77
2023-01-22T21:02:55.821Z,29.10
2023-01-22T21:05:28.729Z,26.85
2023-01-22T21:08:01.847Z,28.48
2023-01-22T21:10:37.509Z,28.48
2023-01-22T21:13:09.208Z,35.33
2023-01-22T21:15:46.819Z,31.17
2023-01-22T21:18:19.009Z,30.90
2023-01-22T21:20:50.758Z,28.02
2023-01-22T21:23:22.436Z,33.42
2023-01-22T21:25:54.082Z,25.38
2023-01-22T21:28:25.775Z,30.98
2023-01-22T21:31:05.926Z,31.23
2023-01-22T21:33:38.735Z,32.30
2023-01-22T21:36:12.074Z,29.38
2023-01-22T21:38:48.303Z,29.40
2023-01-22T21:41:20.042Z,28.92
2023-01-22T21:44:10.645Z,27.23
2023-01-22T21:46:46.905Z,28.80
2023-01-22T21:49:23.424Z,28.67
2023-01-22T21:52:00.382Z,30.65
2023-01-22T21:54:38.630Z,30.15
2023-01-22T21:57:16.922Z,29.52
2023-01-22T21:59:48.618Z,29.17
2023-01-22T22:02:20.619Z,26.50
2023-01-22T22:04:53.491Z,30.20
2023-01-22T22:09:58.835Z,27.02
2023-01-22T22:12:33.369Z,28.23
2023-01-22T22:15:05.899Z,28.73
2023-01-22T22:17:38.544Z,23.60
2023-01-22T22:20:13.114Z,29.77
2023-01-22T22:22:45.939Z,27.13
2023-01-22T22:25:17.803Z,29.73
2023-01-22T22:27:50.755Z,29.85
2023-01-22T22:30:22.533Z,29.92
2023-01-22T22:32:58.836Z,31.50
2023-01-22T22:35:30.932Z,28.52
2023-01-22T22:38:02.954Z,25.95
2023-01-22T22:40:36.824Z,30.52
2023-01-22T22:43:09.344Z,27.83
2023-01-22T22:45:44.024Z,31.15
2023-01-22T22:48:15.701Z,28.08
2023-01-22T22:50:47.424Z,23.23
2023-01-22T22:53:19.894Z,32.72
2023-01-22T22:55:53.614Z,34.10
2023-01-22T22:58:25.263Z,37.85
2023-01-22T23:00:57.302Z,36.90
2023-01-22T23:03:31.423Z,28.42
2023-01-22T23:06:10.418Z,27.50
2023-01-22T23:08:44.450Z,27.30
2023-01-22T23:11:16.157Z,28.83
2023-01-22T23:13:49.494Z,25.85
2023-01-22T23:16:22.650Z,25.88
2023-01-22T23:18:54.423Z,24.30
2023-01-22T23:21:27.090Z,26.33
2023-01-22T23:23:58.812Z,29.15
2023-01-22T23:26:31.743Z,30.45
2023-01-22T23:29:07.337Z,31.50
2023-01-22T23:31:40.089Z,28.38
2023-01-22T23:34:14.325Z,28.45
2023-01-22T23:36:47.343Z,29.83
2023-01-22T23:39:20.501Z,29.98
2023-01-22T23:41:52.266Z,28.70
2023-01-22T23:44:23.924Z,31.27
2023-01-22T23:46:55.604Z,27.70
2023-01-22T23:49:27.295Z,29.25
2023-01-22T23:52:00.105Z,30.00
2023-01-22T23:54:31.786Z,30.88
2023-01-22T23:57:04.795Z,30.38
2023-01-22T23:59:37.505Z,28.77
